Terminal Aerodrome Forecast
Issued by NWS

Home | Current Version | Previous Version | Text Only | Print | Product List | Glossary On
Versions: 1 2 3 4 5 6 7 8 9 10 11 12 13 14 15 16
000
FTUS43 KUNR 312300
TAFGCC
TAF
KGCC 312326Z 0100/0124 34018G28KT 3/4SM -SN SCT008 OVC015
     FM010200 33015KT 2SM -SN OVC007
     FM010900 33011KT P6SM OVC020=

USA.gov is the U.S. government's official web portal to all federal, state and local government web resources and services.